createdAt,value
2022-12-27T00:00:40.226Z,4.14
2022-12-27T00:01:40.062Z,4.12
2022-12-27T00:02:40.308Z,4.14
2022-12-27T00:03:38.616Z,4.12
2022-12-27T00:04:39.563Z,4.15
2022-12-27T00:05:40.231Z,4.15
2022-12-27T00:06:40.075Z,4.16
2022-12-27T00:07:58.819Z,4.16
2022-12-27T00:08:39.016Z,4.16
2022-12-27T00:09:39.531Z,4.15
2022-12-27T00:10:40.141Z,4.16
2022-12-27T00:11:39.413Z,4.16
2022-12-27T00:12:40.230Z,4.18
2022-12-27T00:13:40.049Z,4.18
2022-12-27T00:14:39.054Z,4.18
2022-12-27T00:15:39.055Z,4.15
2022-12-27T00:16:40.027Z,4.15
2022-12-27T00:17:58.770Z,4.18
2022-12-27T00:18:39.207Z,4.18
2022-12-27T00:19:39.923Z,4.20
2022-12-27T00:20:39.696Z,4.22
2022-12-27T00:21:39.049Z,4.23
2022-12-27T00:22:39.331Z,4.22
2022-12-27T00:23:40.255Z,4.24
2022-12-27T00:24:40.065Z,4.24
2022-12-27T00:25:39.736Z,4.24
2022-12-27T00:26:40.062Z,4.26
2022-12-27T00:27:58.399Z,4.27
2022-12-27T00:28:40.312Z,4.27
2022-12-27T00:29:39.929Z,4.27
2022-12-27T00:30:39.740Z,4.26
2022-12-27T00:31:40.130Z,4.27
2022-12-27T00:32:39.013Z,4.27
2022-12-27T00:33:39.058Z,4.27
2022-12-27T00:34:39.483Z,4.27
2022-12-27T00:35:39.785Z,4.26
2022-12-27T00:36:40.096Z,4.29
2022-12-27T00:37:58.408Z,4.27
2022-12-27T00:38:39.645Z,4.27
2022-12-27T00:39:39.060Z,4.27
2022-12-27T00:40:39.767Z,4.29
2022-12-27T00:41:38.131Z,4.29
2022-12-27T00:42:39.824Z,4.29
2022-12-27T00:43:39.599Z,4.29
2022-12-27T00:44:39.904Z,4.29
2022-12-27T00:45:39.072Z,4.27
2022-12-27T00:46:39.495Z,4.27
2022-12-27T00:47:58.305Z,4.26
2022-12-27T00:48:39.522Z,4.24
2022-12-27T00:49:39.823Z,4.26
2022-12-27T00:50:39.735Z,4.24
2022-12-27T00:51:39.513Z,4.23
2022-12-27T00:52:39.814Z,4.24
2022-12-27T00:53:39.647Z,4.23
2022-12-27T00:54:39.432Z,4.23
2022-12-27T00:55:39.227Z,4.24
2022-12-27T00:56:39.523Z,4.22
2022-12-27T00:57:58.325Z,4.22
2022-12-27T00:58:41.019Z,4.22
2022-12-27T00:59:38.867Z,4.20
2022-12-27T01:00:39.161Z,4.20
2022-12-27T01:01:38.827Z,4.18
2022-12-27T01:02:39.746Z,4.18
2022-12-27T01:03:38.604Z,4.18
2022-12-27T01:04:39.353Z,4.20
2022-12-27T01:05:39.753Z,4.20
2022-12-27T01:06:39.559Z,4.16
2022-12-27T01:07:57.872Z,4.15
2022-12-27T01:08:38.567Z,4.15
2022-12-27T01:09:38.559Z,4.12
2022-12-27T01:10:39.717Z,4.09
2022-12-27T01:11:39.469Z,4.14
2022-12-27T01:12:39.273Z,4.12
2022-12-27T01:13:39.595Z,4.14
2022-12-27T01:14:38.592Z,4.15
2022-12-27T01:15:38.579Z,4.16
2022-12-27T01:16:39.574Z,4.16
2022-12-27T01:17:57.814Z,4.18
2022-12-27T01:18:39.537Z,4.16
2022-12-27T01:19:39.311Z,4.18
2022-12-27T01:20:38.581Z,4.16
2022-12-27T01:21:39.482Z,4.16
2022-12-27T01:22:39.288Z,4.15
2022-12-27T01:23:39.562Z,4.14
2022-12-27T01:24:39.396Z,4.12
2022-12-27T01:25:39.161Z,4.11
2022-12-27T01:26:38.570Z,4.11
2022-12-27T01:27:57.782Z,4.14
2022-12-27T01:28:39.507Z,4.15
2022-12-27T01:29:39.260Z,4.16
2022-12-27T01:30:39.088Z,4.15
2022-12-27T01:31:38.603Z,4.16
2022-12-27T01:32:39.158Z,4.14
2022-12-27T01:33:39.424Z,4.15
2022-12-27T01:34:39.259Z,4.12
2022-12-27T01:35:38.529Z,4.14
2022-12-27T01:36:39.331Z,4.14
2022-12-27T01:37:57.652Z,4.16
2022-12-27T01:38:39.377Z,4.14
2022-12-27T01:39:39.154Z,4.15
2022-12-27T01:40:38.984Z,4.15
2022-12-27T01:41:39.264Z,4.15
2022-12-27T01:42:39.079Z,4.16
2022-12-27T01:43:38.607Z,4.15
2022-12-27T01:44:39.159Z,4.18
2022-12-27T01:45:38.913Z,4.18
2022-12-27T01:46:38.431Z,4.18
2022-12-27T01:47:57.528Z,4.16
2022-12-27T01:48:38.100Z,4.20
2022-12-27T01:49:38.104Z,4.20
2022-12-27T01:50:39.319Z,4.22
2022-12-27T01:51:39.086Z,4.23
2022-12-27T01:52:38.977Z,4.22
2022-12-27T01:53:39.271Z,4.22
2022-12-27T01:54:39.067Z,4.22
2022-12-27T01:55:38.836Z,4.23
2022-12-27T01:56:38.666Z,4.23
2022-12-27T01:57:57.465Z,4.22
2022-12-27T01:58:39.190Z,4.22
2022-12-27T01:59:38.954Z,4.22
2022-12-27T02:00:38.745Z,4.20
2022-12-27T02:01:38.201Z,4.18
2022-12-27T02:02:38.969Z,4.16
2022-12-27T02:03:39.127Z,4.22
2022-12-27T02:04:38.923Z,4.22
2022-12-27T02:05:38.712Z,4.20
2022-12-27T02:06:39.507Z,4.22
2022-12-27T02:07:58.807Z,4.24
2022-12-27T02:08:39.100Z,4.24
2022-12-27T02:09:38.878Z,4.23
2022-12-27T02:10:38.677Z,4.24
2022-12-27T02:11:38.964Z,4.23
2022-12-27T02:12:38.000Z,4.22
2022-12-27T02:13:38.131Z,4.26
2022-12-27T02:14:38.887Z,4.26
2022-12-27T02:15:38.644Z,4.26
2022-12-27T02:16:38.470Z,4.27
2022-12-27T02:17:57.246Z,4.29
2022-12-27T02:18:38.978Z,4.30
2022-12-27T02:19:38.758Z,4.30
2022-12-27T02:20:39.196Z,4.32
2022-12-27T02:21:38.817Z,4.30
2022-12-27T02:22:38.610Z,4.32
2022-12-27T02:23:40.090Z,4.30
2022-12-27T02:24:38.769Z,4.30
2022-12-27T02:25:38.519Z,4.30
2022-12-27T02:26:38.818Z,4.29
2022-12-27T02:27:57.119Z,4.30
2022-12-27T02:28:38.842Z,4.32
2022-12-27T02:29:38.621Z,4.32
2022-12-27T02:30:38.167Z,4.34
2022-12-27T02:31:38.711Z,4.33
2022-12-27T02:32:38.500Z,4.33
2022-12-27T02:33:38.760Z,4.32
2022-12-27T02:34:38.567Z,4.33
2022-12-27T02:35:38.353Z,4.34
2022-12-27T02:36:37.628Z,4.37
2022-12-27T02:37:56.954Z,4.40
2022-12-27T02:38:38.677Z,4.40
2022-12-27T02:39:38.514Z,4.37
2022-12-27T02:40:38.794Z,4.36
2022-12-27T02:41:37.628Z,4.37
2022-12-27T02:42:38.353Z,4.37
2022-12-27T02:43:38.635Z,4.37
2022-12-27T02:44:38.419Z,4.36
2022-12-27T02:45:38.201Z,4.40
2022-12-27T02:46:38.539Z,4.41
2022-12-27T02:47:57.313Z,4.42
2022-12-27T02:48:38.533Z,4.44
2022-12-27T02:49:37.154Z,4.44
2022-12-27T02:50:38.617Z,4.42
2022-12-27T02:51:38.388Z,4.42
2022-12-27T02:52:38.705Z,4.45
2022-12-27T02:53:37.621Z,4.48
2022-12-27T02:54:38.345Z,4.47
2022-12-27T02:55:38.654Z,4.50
2022-12-27T02:56:38.429Z,4.54
2022-12-27T02:57:56.767Z,4.55
2022-12-27T02:58:37.636Z,4.54
2022-12-27T02:59:38.261Z,4.55
2022-12-27T03:00:38.504Z,4.54
2022-12-27T03:01:38.463Z,4.54
2022-12-27T03:02:38.629Z,4.59
2022-12-27T03:03:44.038Z,4.58
2022-12-27T03:04:39.150Z,4.60
2022-12-27T03:05:38.449Z,4.60
2022-12-27T03:06:38.213Z,4.59
2022-12-27T03:07:57.053Z,4.59
2022-12-27T03:08:38.247Z,4.55
2022-12-27T03:09:38.538Z,4.59
2022-12-27T03:10:37.647Z,4.54
2022-12-27T03:11:38.169Z,4.54
2022-12-27T03:12:38.429Z,4.54
2022-12-27T03:13:37.471Z,4.54
2022-12-27T03:14:38.036Z,4.52
2022-12-27T03:15:37.723Z,4.52
2022-12-27T03:16:38.113Z,4.52
2022-12-27T03:17:57.010Z,4.54
2022-12-27T03:18:38.206Z,4.54
2022-12-27T03:19:36.613Z,4.52
2022-12-27T03:20:37.012Z,4.51
2022-12-27T03:21:37.163Z,4.48
2022-12-27T03:22:37.657Z,4.48
2022-12-27T03:23:38.298Z,4.45
2022-12-27T03:24:36.657Z,4.45
2022-12-27T03:25:37.612Z,4.44
2022-12-27T03:26:38.288Z,4.42
2022-12-27T03:27:56.654Z,4.42
2022-12-27T03:28:38.362Z,4.41
2022-12-27T03:29:37.694Z,4.41
2022-12-27T03:30:36.570Z,4.41
2022-12-27T03:31:38.268Z,4.41
2022-12-27T03:32:36.655Z,4.42
2022-12-27T03:33:37.907Z,4.42
2022-12-27T03:34:37.405Z,4.44
2022-12-27T03:35:36.615Z,4.48
2022-12-27T03:36:38.283Z,4.48
2022-12-27T03:37:56.666Z,4.51
2022-12-27T03:38:36.505Z,4.51
2022-12-27T03:39:36.984Z,4.54
2022-12-27T03:40:37.234Z,4.54
2022-12-27T03:41:37.799Z,4.58
2022-12-27T03:42:38.177Z,4.59
2022-12-27T03:43:36.568Z,4.58
2022-12-27T03:44:36.815Z,4.59
2022-12-27T03:45:36.640Z,4.60
2022-12-27T03:46:36.472Z,4.55
2022-12-27T03:47:56.665Z,4.55
2022-12-27T03:48:36.461Z,4.52
2022-12-27T03:49:36.248Z,4.50
2022-12-27T03:50:36.501Z,4.51
2022-12-27T03:51:36.311Z,4.48
2022-12-27T03:52:36.560Z,4.47
2022-12-27T03:53:36.317Z,4.45
2022-12-27T03:54:36.578Z,4.44
2022-12-27T03:55:36.368Z,4.42
2022-12-27T03:56:36.636Z,4.42
2022-12-27T03:57:56.384Z,4.40
2022-12-27T03:58:36.115Z,4.41
2022-12-27T03:59:36.384Z,4.40
2022-12-27T04:00:36.116Z,4.36
2022-12-27T04:01:36.453Z,4.37
2022-12-27T04:02:36.255Z,4.36
2022-12-27T04:03:36.415Z,4.40
2022-12-27T04:04:36.131Z,4.40
2022-12-27T04:05:36.373Z,4.41
2022-12-27T04:06:36.115Z,4.42
2022-12-27T04:07:56.405Z,4.41
2022-12-27T04:08:36.124Z,4.42
2022-12-27T04:09:36.377Z,4.42
2022-12-27T04:10:36.134Z,4.41
2022-12-27T04:11:36.415Z,4.41
2022-12-27T04:12:36.188Z,4.40
2022-12-27T04:13:36.421Z,4.41
2022-12-27T04:14:36.188Z,4.40
2022-12-27T04:15:36.510Z,4.41
2022-12-27T04:16:36.196Z,4.42
2022-12-27T04:17:56.508Z,4.41
2022-12-27T04:18:36.272Z,4.41
2022-12-27T04:19:36.015Z,4.42
2022-12-27T04:20:36.271Z,4.42
2022-12-27T04:21:36.062Z,4.42
2022-12-27T04:22:36.321Z,4.42
2022-12-27T04:23:36.101Z,4.42
2022-12-27T04:24:36.356Z,4.42
2022-12-27T04:25:36.138Z,4.42
2022-12-27T04:26:35.881Z,4.41
2022-12-27T04:27:56.148Z,4.44
2022-12-27T04:28:35.885Z,4.42
2022-12-27T04:29:36.156Z,4.47
2022-12-27T04:30:35.900Z,4.44
2022-12-27T04:31:36.232Z,4.44
2022-12-27T04:32:35.892Z,4.44
2022-12-27T04:33:36.165Z,4.44
2022-12-27T04:34:35.878Z,4.42
2022-12-27T04:35:36.173Z,4.44
2022-12-27T04:36:35.915Z,4.42
2022-12-27T04:37:57.682Z,4.44
2022-12-27T04:38:35.996Z,4.44
2022-12-27T04:39:35.749Z,4.44
2022-12-27T04:40:35.976Z,4.44
2022-12-27T04:41:35.774Z,4.45
2022-12-27T04:42:36.004Z,4.47
2022-12-27T04:43:35.758Z,4.47
2022-12-27T04:44:36.003Z,4.44
2022-12-27T04:45:35.759Z,4.42
2022-12-27T04:46:36.107Z,4.41
2022-12-27T04:47:56.506Z,4.44
2022-12-27T04:48:35.630Z,4.41
2022-12-27T04:49:35.926Z,4.42
2022-12-27T04:50:35.664Z,4.41
2022-12-27T04:51:35.948Z,4.41
2022-12-27T04:52:35.707Z,4.37
2022-12-27T04:53:35.935Z,4.41
2022-12-27T04:54:35.692Z,4.36
2022-12-27T04:55:35.954Z,4.40
2022-12-27T04:56:35.708Z,4.36
2022-12-27T04:57:57.456Z,4.33
2022-12-27T04:58:35.780Z,4.33
2022-12-27T04:59:36.032Z,4.32
2022-12-27T05:00:35.814Z,4.32
2022-12-27T05:01:35.689Z,4.33
2022-12-27T05:02:35.992Z,4.32
2022-12-27T05:03:35.585Z,4.32
2022-12-27T05:04:35.856Z,4.30
2022-12-27T05:05:35.583Z,4.30
2022-12-27T05:06:35.833Z,4.29
2022-12-27T05:07:56.332Z,4.30
2022-12-27T05:08:35.892Z,4.30
2022-12-27T05:09:35.687Z,4.29
2022-12-27T05:10:35.432Z,4.33
2022-12-27T05:11:37.194Z,4.30
2022-12-27T05:12:35.459Z,4.32
2022-12-27T05:13:35.753Z,4.33
2022-12-27T05:14:35.545Z,4.32
2022-12-27T05:15:35.770Z,4.33
2022-12-27T05:16:35.629Z,4.32
2022-12-27T05:17:56.253Z,4.36
2022-12-27T05:18:35.642Z,4.36
2022-12-27T05:19:35.400Z,4.34
2022-12-27T05:20:35.664Z,4.37
2022-12-27T05:21:35.466Z,4.37
2022-12-27T05:22:35.682Z,4.36
2022-12-27T05:23:35.470Z,4.33
2022-12-27T05:24:35.683Z,4.34
2022-12-27T05:25:35.452Z,4.33
2022-12-27T05:26:35.694Z,4.33
2022-12-27T05:27:56.170Z,4.34
2022-12-27T05:28:35.248Z,4.34
2022-12-27T05:29:35.527Z,4.33
2022-12-27T05:30:35.274Z,4.33
2022-12-27T05:31:35.640Z,4.32
2022-12-27T05:32:35.270Z,4.33
2022-12-27T05:33:35.533Z,4.33
2022-12-27T05:34:35.295Z,4.33
2022-12-27T05:35:35.610Z,4.32
2022-12-27T05:36:35.345Z,4.32
2022-12-27T05:37:56.586Z,4.29
2022-12-27T05:38:35.388Z,4.30
2022-12-27T05:39:35.172Z,4.29
2022-12-27T05:40:35.410Z,4.32
2022-12-27T05:41:35.178Z,4.29
2022-12-27T05:42:35.454Z,4.29
2022-12-27T05:43:35.165Z,4.27
2022-12-27T05:44:35.437Z,4.24
2022-12-27T05:45:35.164Z,4.23
2022-12-27T05:46:35.456Z,4.22
2022-12-27T05:47:55.272Z,4.23
2022-12-27T05:48:35.469Z,4.20
2022-12-27T05:49:35.244Z,4.20
2022-12-27T05:50:35.496Z,4.20
2022-12-27T05:51:35.219Z,4.18
2022-12-27T05:52:40.794Z,4.16
2022-12-27T05:53:36.252Z,4.14
2022-12-27T05:54:34.983Z,4.14
2022-12-27T05:55:35.249Z,4.14
2022-12-27T05:56:34.987Z,4.15
2022-12-27T05:57:56.770Z,4.14
2022-12-27T05:58:35.062Z,4.15
2022-12-27T05:59:35.321Z,4.15
2022-12-27T06:00:35.070Z,4.14
2022-12-27T06:01:35.477Z,4.15
2022-12-27T06:02:35.257Z,4.16
2022-12-27T06:03:35.373Z,4.15
2022-12-27T06:04:35.078Z,4.12
2022-12-27T06:05:35.324Z,4.15
2022-12-27T06:06:35.040Z,4.14
2022-12-27T06:07:56.365Z,4.12
2022-12-27T06:08:35.139Z,4.12
2022-12-27T06:09:34.919Z,4.14
2022-12-27T06:10:35.186Z,4.14
2022-12-27T06:11:34.937Z,4.14
2022-12-27T06:12:35.168Z,4.11
2022-12-27T06:13:35.004Z,4.12
2022-12-27T06:14:35.204Z,4.11
2022-12-27T06:15:34.968Z,4.11
2022-12-27T06:16:35.242Z,4.11
2022-12-27T06:17:56.514Z,4.12
2022-12-27T06:18:34.823Z,4.12
2022-12-27T06:19:35.092Z,4.11
2022-12-27T06:20:34.839Z,4.11
2022-12-27T06:21:35.104Z,4.11
2022-12-27T06:22:34.863Z,4.08
2022-12-27T06:23:35.134Z,4.09
2022-12-27T06:24:34.882Z,4.09
2022-12-27T06:25:35.135Z,4.09
2022-12-27T06:26:34.883Z,4.08
2022-12-27T06:27:55.793Z,4.08
2022-12-27T06:28:34.940Z,4.08
2022-12-27T06:29:34.714Z,4.08
2022-12-27T06:30:36.371Z,4.08
2022-12-27T06:31:34.720Z,4.05
2022-12-27T06:32:34.945Z,4.06
2022-12-27T06:33:34.777Z,4.11
2022-12-27T06:34:35.012Z,4.08
2022-12-27T06:35:34.793Z,4.06
2022-12-27T06:36:35.071Z,4.06
2022-12-27T06:37:56.335Z,4.08
2022-12-27T06:38:34.634Z,4.08
2022-12-27T06:39:34.903Z,4.06
2022-12-27T06:40:34.653Z,4.05
2022-12-27T06:41:34.937Z,4.06
2022-12-27T06:42:34.700Z,4.04
2022-12-27T06:43:34.976Z,4.04
2022-12-27T06:44:34.716Z,4.04
2022-12-27T06:45:35.000Z,4.02
2022-12-27T06:46:34.734Z,4.02
2022-12-27T06:47:56.524Z,4.04
2022-12-27T06:48:34.824Z,4.02
2022-12-27T06:49:34.570Z,4.04
2022-12-27T06:50:34.846Z,4.02
2022-12-27T06:51:34.577Z,4.02
2022-12-27T06:52:34.839Z,4.00
2022-12-27T06:53:34.616Z,4.00
2022-12-27T06:54:34.847Z,4.00
2022-12-27T06:55:34.613Z,4.00
2022-12-27T06:56:34.874Z,4.02
2022-12-27T06:57:55.315Z,4.05
2022-12-27T06:58:34.438Z,4.04
2022-12-27T06:59:34.682Z,4.04
2022-12-27T07:00:34.454Z,4.04
2022-12-27T07:01:34.767Z,4.04
2022-12-27T07:02:34.530Z,4.04
2022-12-27T07:03:34.700Z,4.02
2022-12-27T07:04:34.450Z,3.98
2022-12-27T07:05:34.721Z,3.98
2022-12-27T07:06:34.490Z,3.98
2022-12-27T07:07:55.807Z,3.97
2022-12-27T07:08:34.609Z,3.98
2022-12-27T07:09:34.357Z,3.97
2022-12-27T07:10:34.615Z,3.98
2022-12-27T07:11:34.375Z,3.98
2022-12-27T07:12:36.823Z,3.96
2022-12-27T07:13:34.381Z,3.94
2022-12-27T07:14:34.642Z,3.96
2022-12-27T07:15:34.379Z,3.94
2022-12-27T07:16:35.112Z,3.96
2022-12-27T07:17:55.148Z,3.94
2022-12-27T07:18:34.275Z,3.93
2022-12-27T07:19:34.511Z,3.91
2022-12-27T07:20:34.294Z,3.91
2022-12-27T07:21:34.547Z,3.88
2022-12-27T07:22:34.293Z,3.88
2022-12-27T07:23:34.544Z,3.88
2022-12-27T07:24:34.327Z,3.86
2022-12-27T07:25:34.584Z,3.87
2022-12-27T07:26:34.340Z,3.87
2022-12-27T07:27:56.131Z,3.86
2022-12-27T07:28:35.894Z,3.86
2022-12-27T07:29:34.192Z,3.86
2022-12-27T07:30:34.466Z,3.86
2022-12-27T07:31:34.224Z,3.83
2022-12-27T07:32:34.477Z,3.88
2022-12-27T07:33:34.227Z,3.87
2022-12-27T07:34:34.498Z,3.87
2022-12-27T07:35:34.230Z,3.86
2022-12-27T07:36:34.004Z,3.86
2022-12-27T07:37:54.822Z,3.88
2022-12-27T07:38:35.187Z,3.86
2022-12-27T07:39:35.909Z,3.86
2022-12-27T07:40:35.753Z,3.86
2022-12-27T07:41:35.583Z,3.87
2022-12-27T07:42:35.887Z,3.90
2022-12-27T07:43:34.827Z,3.88
2022-12-27T07:44:34.893Z,3.90
2022-12-27T07:45:34.906Z,3.90
2022-12-27T07:46:35.754Z,3.90
2022-12-27T07:47:54.045Z,3.91
2022-12-27T07:48:36.284Z,3.91
2022-12-27T07:49:34.848Z,3.94
2022-12-27T07:50:35.388Z,3.93
2022-12-27T07:51:35.679Z,3.91
2022-12-27T07:52:35.553Z,3.91
2022-12-27T07:53:35.343Z,3.96
2022-12-27T07:54:34.832Z,3.96
2022-12-27T07:55:34.825Z,3.94
2022-12-27T07:56:35.807Z,3.94
2022-12-27T07:57:54.089Z,3.96
2022-12-27T07:58:33.832Z,3.96
2022-12-27T07:59:34.104Z,3.96
2022-12-27T08:00:33.863Z,3.97
2022-12-27T08:01:34.176Z,3.98
2022-12-27T08:02:33.894Z,4.00
2022-12-27T08:03:34.149Z,4.00
2022-12-27T08:04:33.889Z,4.00
2022-12-27T08:05:34.145Z,4.04
2022-12-27T08:06:33.910Z,4.04
2022-12-27T08:07:54.175Z,4.05
2022-12-27T08:08:33.956Z,4.05
2022-12-27T08:09:33.691Z,4.04
2022-12-27T08:10:33.958Z,4.05
2022-12-27T08:11:33.685Z,4.08
2022-12-27T08:12:33.937Z,4.11
2022-12-27T08:13:33.685Z,4.11
2022-12-27T08:14:33.938Z,4.15
2022-12-27T08:15:33.681Z,4.18
2022-12-27T08:16:34.037Z,4.22
2022-12-27T08:17:53.964Z,4.26
2022-12-27T08:18:33.984Z,4.27
2022-12-27T08:19:33.735Z,4.32
2022-12-27T08:20:34.008Z,4.34
2022-12-27T08:21:33.775Z,4.41
2022-12-27T08:22:33.529Z,4.44
2022-12-27T08:23:33.798Z,4.47
2022-12-27T08:24:33.545Z,4.50
2022-12-27T08:25:33.791Z,4.55
2022-12-27T08:26:33.571Z,4.58
2022-12-27T08:27:53.877Z,4.62
2022-12-27T08:28:33.615Z,4.66
2022-12-27T08:29:33.847Z,4.66
2022-12-27T08:30:33.685Z,4.67
2022-12-27T08:31:54.864Z,4.70
2022-12-27T08:32:33.651Z,4.73
2022-12-27T08:33:33.882Z,4.80
2022-12-27T08:34:33.648Z,4.88
2022-12-27T08:35:52.253Z,4.96
2022-12-27T08:36:54.737Z,5.03
2022-12-27T08:37:54.411Z,5.17
2022-12-27T08:38:33.661Z,5.21
2022-12-27T08:39:33.418Z,5.27
2022-12-27T08:40:33.677Z,5.35
2022-12-27T08:41:33.411Z,5.49
2022-12-27T08:42:33.690Z,5.58
2022-12-27T08:43:33.454Z,5.60
2022-12-27T08:44:33.722Z,5.56
2022-12-27T08:45:33.464Z,5.56
2022-12-27T08:46:33.777Z,5.57
2022-12-27T08:47:53.507Z,5.58
2022-12-27T08:48:33.775Z,5.54
2022-12-27T08:49:33.477Z,5.51
2022-12-27T08:50:33.738Z,5.45
2022-12-27T08:51:40.859Z,5.42
2022-12-27T08:52:34.255Z,5.40
2022-12-27T08:53:33.502Z,5.39
2022-12-27T08:54:32.809Z,5.39
2022-12-27T08:55:32.697Z,5.43
2022-12-27T08:56:33.450Z,5.45
2022-12-27T08:57:53.730Z,5.53
2022-12-27T08:58:33.461Z,5.53
2022-12-27T08:59:33.208Z,5.58
2022-12-27T09:00:33.452Z,5.61
2022-12-27T09:01:33.321Z,5.68
2022-12-27T09:02:33.590Z,5.74
2022-12-27T09:03:33.275Z,5.85
2022-12-27T09:04:33.493Z,5.97
2022-12-27T09:05:39.636Z,6.14
2022-12-27T09:06:34.535Z,6.41
2022-12-27T09:07:54.803Z,6.92
2022-12-27T09:08:33.097Z,7.13
2022-12-27T09:09:33.366Z,7.43
2022-12-27T09:10:33.116Z,7.69
2022-12-27T09:11:33.536Z,7.95
2022-12-27T09:12:33.170Z,8.10
2022-12-27T09:13:33.438Z,8.02
2022-12-27T09:14:33.358Z,7.95
2022-12-27T09:15:33.139Z,7.89
2022-12-27T09:16:33.318Z,7.89
2022-12-27T09:17:54.662Z,8.11
2022-12-27T09:18:33.446Z,8.16
2022-12-27T09:19:33.242Z,8.25
2022-12-27T09:20:32.995Z,8.25
2022-12-27T09:21:33.275Z,8.20
2022-12-27T09:22:33.012Z,8.07
2022-12-27T09:23:33.246Z,8.00
2022-12-27T09:24:33.010Z,7.97
2022-12-27T09:25:33.291Z,7.90
2022-12-27T09:26:33.092Z,7.87
2022-12-27T09:27:53.941Z,7.67
2022-12-27T09:28:34.582Z,7.60
2022-12-27T09:29:32.929Z,7.55
2022-12-27T09:30:33.207Z,7.53
2022-12-27T09:31:32.990Z,7.48
2022-12-27T09:32:33.227Z,7.40
2022-12-27T09:33:32.991Z,7.35
2022-12-27T09:34:33.243Z,7.32
2022-12-27T09:35:38.423Z,7.39
2022-12-27T09:36:34.298Z,7.45
2022-12-27T09:37:54.579Z,7.58
2022-12-27T09:38:32.905Z,7.68
2022-12-27T09:39:33.149Z,7.86
2022-12-27T09:40:32.922Z,7.89
2022-12-27T09:42:33.100Z,8.04
2022-12-27T09:42:50.787Z,8.44
2022-12-27T09:43:33.990Z,8.68
2022-12-27T09:44:32.773Z,8.96
2022-12-27T09:45:33.049Z,9.39
2022-12-27T09:46:32.827Z,9.66
2022-12-27T09:47:54.561Z,9.78
2022-12-27T09:48:33.678Z,10.01
2022-12-27T09:49:33.125Z,10.30
2022-12-27T09:50:32.897Z,10.59
2022-12-27T09:51:33.423Z,10.68
2022-12-27T09:52:32.900Z,10.76
2022-12-27T09:53:32.650Z,11.07
2022-12-27T09:54:32.926Z,11.24
2022-12-27T09:55:32.668Z,11.47
2022-12-27T09:56:54.620Z,11.76
2022-12-27T09:57:54.417Z,12.10
2022-12-27T09:58:32.563Z,12.37
2022-12-27T09:59:32.823Z,12.71
2022-12-27T10:00:35.335Z,13.03
2022-12-27T10:01:33.204Z,13.69
2022-12-27T10:06:00.195Z,14.29
2022-12-27T10:06:07.047Z,16.02
2022-12-27T10:07:05.827Z,16.33
2022-12-27T10:38:12.794Z,16.31
2022-12-27T10:38:23.420Z,19.29
2022-12-27T10:41:49.161Z,19.41
2022-12-27T10:41:55.464Z,19.68
2022-12-27T10:42:56.294Z,19.39
2022-12-27T10:43:54.732Z,17.84
2022-12-27T10:44:55.945Z,16.63
2022-12-27T10:45:56.311Z,15.80
2022-12-27T10:46:56.229Z,15.23
2022-12-27T10:47:55.961Z,15.02
2022-12-27T10:49:20.300Z,14.84
2022-12-27T10:49:55.439Z,14.94
2022-12-27T10:51:14.816Z,15.29
2022-12-27T10:51:55.426Z,15.36
2022-12-27T10:52:57.878Z,15.65
2022-12-27T10:53:56.030Z,15.50
2022-12-27T10:54:55.417Z,15.06
2022-12-27T10:55:55.430Z,14.58
2022-12-27T10:56:56.061Z,14.04
2022-12-27T10:57:55.905Z,13.51
2022-12-27T10:58:59.100Z,13.17
2022-12-27T10:59:54.567Z,12.70
2022-12-27T11:01:15.018Z,12.32
2022-12-27T11:01:54.704Z,12.28
2022-12-27T11:02:54.589Z,12.16
2022-12-27T11:03:54.647Z,11.78
2022-12-27T11:04:54.414Z,11.52
2022-12-27T11:05:54.665Z,11.39
2022-12-27T11:06:54.435Z,11.27
2022-12-27T11:07:54.695Z,11.18
2022-12-27T11:08:54.471Z,10.94
2022-12-27T11:09:54.247Z,10.86
2022-12-27T11:11:14.530Z,10.61
2022-12-27T11:11:54.236Z,10.59
2022-12-27T11:12:54.508Z,10.42
2022-12-27T11:13:54.258Z,10.36
2022-12-27T11:14:54.522Z,10.32
2022-12-27T11:15:58.537Z,10.29
2022-12-27T11:16:54.521Z,10.27
2022-12-27T11:17:54.284Z,10.22
2022-12-27T11:18:54.546Z,10.12
2022-12-27T11:19:54.307Z,10.05
2022-12-27T11:21:23.877Z,10.04
2022-12-27T11:21:55.303Z,10.07
2022-12-27T11:22:54.581Z,10.07
2022-12-27T11:23:54.353Z,10.08
2022-12-27T11:24:54.092Z,10.04
2022-12-27T11:25:54.369Z,10.01
2022-12-27T11:26:54.536Z,9.96
2022-12-27T11:27:54.335Z,9.90
2022-12-27T11:28:54.101Z,9.89
2022-12-27T11:29:54.332Z,9.86
2022-12-27T11:31:14.178Z,9.79
2022-12-27T11:31:54.475Z,9.76
2022-12-27T11:32:54.116Z,9.75
2022-12-27T11:33:54.362Z,9.76
2022-12-27T11:34:54.126Z,9.76
2022-12-27T11:35:54.372Z,9.79
2022-12-27T11:36:54.126Z,9.83
2022-12-27T11:37:54.379Z,9.79
2022-12-27T11:38:54.144Z,9.79
2022-12-27T11:39:54.395Z,9.78
2022-12-27T11:41:14.157Z,9.71
2022-12-27T11:41:53.907Z,9.69
2022-12-27T11:42:54.129Z,9.64
2022-12-27T11:43:53.890Z,9.56
2022-12-27T11:44:54.162Z,9.48
2022-12-27T11:45:53.889Z,9.43
2022-12-27T11:46:58.997Z,9.38
2022-12-27T11:47:54.906Z,9.35
2022-12-27T11:48:55.614Z,9.33
2022-12-27T11:49:53.905Z,9.32
2022-12-27T11:51:14.190Z,9.23
2022-12-27T11:51:53.923Z,9.20
2022-12-27T11:52:54.191Z,9.20
2022-12-27T11:53:56.331Z,9.13
2022-12-27T11:54:54.202Z,8.99
2022-12-27T11:55:53.935Z,8.94
2022-12-27T11:56:54.218Z,8.91
2022-12-27T11:57:53.977Z,8.94
2022-12-27T11:58:53.735Z,8.91
2022-12-27T11:59:53.982Z,8.89
2022-12-27T12:01:13.851Z,8.89
2022-12-27T12:01:54.112Z,8.89
2022-12-27T12:02:54.573Z,8.86
2022-12-27T12:03:54.021Z,8.84
2022-12-27T12:04:53.788Z,8.84
2022-12-27T12:05:54.038Z,8.84
2022-12-27T12:06:53.815Z,8.83
2022-12-27T12:07:54.048Z,8.84
2022-12-27T12:08:53.819Z,8.83
2022-12-27T12:09:53.547Z,8.84
2022-12-27T12:11:13.832Z,8.86
2022-12-27T12:11:55.352Z,8.86
2022-12-27T12:12:53.839Z,8.87
2022-12-27T12:13:54.186Z,8.84
2022-12-27T12:14:53.829Z,8.83
2022-12-27T12:15:53.569Z,8.83
2022-12-27T12:16:53.925Z,8.84
2022-12-27T12:17:53.576Z,8.86
2022-12-27T12:18:53.846Z,8.84
2022-12-27T12:19:53.585Z,8.87
2022-12-27T12:21:13.860Z,8.87
2022-12-27T12:21:53.607Z,8.87
2022-12-27T12:22:54.088Z,8.83
2022-12-27T12:23:54.267Z,8.79
2022-12-27T12:24:53.851Z,8.80
2022-12-27T12:25:53.602Z,8.81
2022-12-27T12:26:55.977Z,8.84
2022-12-27T12:27:53.625Z,8.84
2022-12-27T12:28:58.636Z,8.84
2022-12-27T12:29:54.625Z,8.84
2022-12-27T12:31:13.488Z,8.84
2022-12-27T12:31:53.745Z,8.80
2022-12-27T12:32:53.409Z,8.80
2022-12-27T12:33:53.649Z,8.80
2022-12-27T12:34:53.398Z,8.80
2022-12-27T12:35:53.629Z,8.79
2022-12-27T12:36:53.384Z,8.77
2022-12-27T12:37:55.094Z,8.76
2022-12-27T12:38:53.412Z,8.76
2022-12-27T12:39:53.666Z,8.77
2022-12-27T12:41:13.414Z,8.76
2022-12-27T12:41:53.632Z,8.77
2022-12-27T12:42:53.408Z,8.74
2022-12-27T12:43:55.061Z,8.74
2022-12-27T12:44:53.376Z,8.74
2022-12-27T12:45:54.398Z,8.76
2022-12-27T12:46:53.359Z,8.73
2022-12-27T12:47:53.601Z,8.73
2022-12-27T12:48:53.360Z,8.74
2022-12-27T12:49:53.820Z,8.74
2022-12-27T12:51:13.372Z,8.76
2022-12-27T12:51:53.104Z,8.79
2022-12-27T12:52:53.353Z,8.74
2022-12-27T12:53:53.110Z,8.74
2022-12-27T12:54:53.356Z,8.73
2022-12-27T12:55:54.546Z,8.71
2022-12-27T12:56:53.382Z,8.71
2022-12-27T12:57:53.138Z,8.74
2022-12-27T12:58:54.819Z,8.77
2022-12-27T12:59:53.184Z,8.79
2022-12-27T13:01:13.462Z,8.81
2022-12-27T13:01:53.273Z,8.86
2022-12-27T13:02:53.520Z,8.89
2022-12-27T13:03:53.168Z,8.92
2022-12-27T13:04:53.406Z,8.92
2022-12-27T13:05:53.170Z,8.95
2022-12-27T13:06:54.382Z,8.92
2022-12-27T13:07:54.662Z,8.92
2022-12-27T13:08:52.973Z,8.92
2022-12-27T13:09:53.242Z,8.89
2022-12-27T13:11:13.019Z,8.87
2022-12-27T13:11:53.293Z,8.83
2022-12-27T13:12:53.329Z,8.80
2022-12-27T13:13:53.282Z,8.80
2022-12-27T13:14:53.041Z,8.79
2022-12-27T13:15:53.318Z,8.79
2022-12-27T13:16:53.079Z,8.79
2022-12-27T13:17:53.338Z,8.79
2022-12-27T13:18:53.097Z,8.76
2022-12-27T13:19:52.969Z,8.79
2022-12-27T13:21:13.109Z,8.77
2022-12-27T13:21:52.853Z,8.73
2022-12-27T13:22:53.117Z,8.76
2022-12-27T13:23:52.883Z,8.74
2022-12-27T13:24:53.128Z,8.74
2022-12-27T13:25:52.903Z,8.71
2022-12-27T13:26:53.124Z,8.70
2022-12-27T13:27:52.919Z,8.68
2022-12-27T13:28:53.139Z,8.66
2022-12-27T13:29:52.924Z,8.62
2022-12-27T13:31:13.203Z,8.62
2022-12-27T13:31:52.916Z,8.59
2022-12-27T13:32:53.159Z,8.59
2022-12-27T13:33:52.919Z,8.55
2022-12-27T13:34:53.178Z,8.53
2022-12-27T13:35:52.956Z,8.53
2022-12-27T13:36:52.703Z,8.52
2022-12-27T13:37:53.025Z,8.50
2022-12-27T13:38:54.305Z,8.48
2022-12-27T13:39:54.681Z,8.47
2022-12-27T13:41:13.017Z,8.45
2022-12-27T13:41:53.472Z,8.44
2022-12-27T13:42:53.566Z,8.43
2022-12-27T13:43:54.359Z,8.40
2022-12-27T13:44:54.219Z,8.38
2022-12-27T13:45:54.578Z,8.37
2022-12-27T13:46:54.387Z,8.36
2022-12-27T13:47:53.678Z,8.34
2022-12-27T13:48:54.470Z,8.36
2022-12-27T13:49:52.958Z,8.34